createdAt,value
2022-10-07T00:00:29.398Z,102429.66
2022-10-07T00:03:31.854Z,102436.78
2022-10-07T00:06:33.926Z,102431.69
2022-10-07T00:09:35.973Z,102425.56
2022-10-07T00:12:38.016Z,102436.78
2022-10-07T00:15:40.078Z,102434.47
2022-10-07T00:18:42.315Z,102422.78
2022-10-07T00:21:44.308Z,102416.94
2022-10-07T00:24:46.277Z,102421.91
2022-10-07T00:27:50.385Z,102411.38
2022-10-07T00:31:04.132Z,102417.66
2022-10-07T00:34:07.404Z,102410.97
2022-10-07T00:37:09.553Z,102419.66
2022-10-07T00:40:13.619Z,102409.44
2022-10-07T00:43:31.997Z,102420.97
2022-10-07T00:46:38.023Z,102406.41
2022-10-07T00:49:48.423Z,102426.16
2022-10-07T00:53:01.222Z,102419.88
2022-10-07T00:56:05.176Z,102416.00
2022-10-07T00:59:08.078Z,102429.28
2022-10-07T01:02:10.241Z,102418.03
2022-10-07T01:05:14.382Z,102403.22
2022-10-07T01:08:20.023Z,102407.34
2022-10-07T01:11:46.676Z,102418.41
2022-10-07T01:15:08.074Z,102425.53
2022-10-07T01:18:16.075Z,102409.25
2022-10-07T01:21:17.959Z,102417.41
2022-10-07T01:24:22.505Z,102424.38
2022-10-07T01:27:27.710Z,102409.34
2022-10-07T01:30:33.602Z,102420.59
2022-10-07T01:33:39.320Z,102416.50
2022-10-07T01:36:43.443Z,102426.03
2022-10-07T01:39:57.283Z,102417.16
2022-10-07T01:42:59.832Z,102405.47
2022-10-07T01:46:03.988Z,102402.28
2022-10-07T01:49:07.350Z,102416.25
2022-10-07T01:52:28.267Z,102416.38
2022-10-07T01:55:49.601Z,102413.34
2022-10-07T01:59:08.167Z,102416.78
2022-10-07T02:02:19.048Z,102409.44
2022-10-07T02:05:42.963Z,102415.22
2022-10-07T02:08:54.334Z,102416.78
2022-10-07T02:12:05.899Z,102414.50
2022-10-07T02:15:22.436Z,102413.00
2022-10-07T02:18:27.589Z,102408.56
2022-10-07T02:21:34.518Z,102421.66
2022-10-07T02:24:39.562Z,102407.69
2022-10-07T02:27:47.792Z,102417.09
2022-10-07T02:30:55.866Z,102426.94
2022-10-07T02:34:01.265Z,102429.81
2022-10-07T02:37:11.719Z,102422.47
2022-10-07T02:40:14.067Z,102418.31
2022-10-07T02:43:37.517Z,102434.69
2022-10-07T02:46:53.999Z,102425.78
2022-10-07T02:50:01.384Z,102423.59
2022-10-07T02:53:06.356Z,102413.34
2022-10-07T02:56:08.932Z,102424.69
2022-10-07T02:59:13.040Z,102432.34
2022-10-07T03:02:25.926Z,102439.66
2022-10-07T03:05:29.794Z,102439.13
2022-10-07T03:08:36.639Z,102412.84
2022-10-07T03:11:39.778Z,102430.25
2022-10-07T03:14:41.924Z,102436.94
2022-10-07T03:17:44.612Z,102441.34
2022-10-07T03:20:46.995Z,102435.91
2022-10-07T03:23:54.087Z,102433.75
2022-10-07T03:26:59.495Z,102432.22
2022-10-07T03:30:02.467Z,102440.56
2022-10-07T03:33:04.918Z,102426.31
2022-10-07T03:36:08.465Z,102431.56
2022-10-07T03:39:12.066Z,102435.66
2022-10-07T03:42:14.543Z,102421.56
2022-10-07T03:45:19.587Z,102429.78
2022-10-07T03:48:21.991Z,102430.94
2022-10-07T03:51:24.562Z,102433.75
2022-10-07T03:54:26.945Z,102426.75
2022-10-07T03:57:47.783Z,102425.44
2022-10-07T04:00:50.723Z,102419.69
2022-10-07T04:03:53.525Z,102401.81
2022-10-07T04:06:55.724Z,102430.06
2022-10-07T04:09:58.651Z,102424.25
2022-10-07T04:13:01.265Z,102428.13
2022-10-07T04:16:08.634Z,102429.78
2022-10-07T04:19:11.266Z,102428.09
2022-10-07T04:22:13.392Z,102435.47
2022-10-07T04:25:33.780Z,102426.31
2022-10-07T04:28:40.538Z,102426.16
2022-10-07T04:31:46.586Z,102428.94
2022-10-07T04:34:51.654Z,102427.06
2022-10-07T04:37:55.049Z,102400.78
2022-10-07T04:41:04.308Z,102426.53
2022-10-07T04:44:06.761Z,102429.56
2022-10-07T04:47:14.735Z,102434.06
2022-10-07T04:50:17.512Z,102424.63
2022-10-07T04:53:22.755Z,102438.03
2022-10-07T04:56:28.545Z,102428.31
2022-10-07T04:59:31.794Z,102432.59
2022-10-07T05:02:35.300Z,102432.22
2022-10-07T05:05:41.901Z,102433.06
2022-10-07T05:08:44.468Z,102446.22
2022-10-07T05:11:49.321Z,102433.13
2022-10-07T05:14:54.699Z,102445.91
2022-10-07T05:17:57.642Z,102450.41
2022-10-07T05:21:05.727Z,102449.38
2022-10-07T05:24:09.398Z,102456.16
2022-10-07T05:27:14.415Z,102445.00
2022-10-07T05:30:17.104Z,102454.13
2022-10-07T05:33:20.455Z,102440.13
2022-10-07T05:36:24.476Z,102471.31
2022-10-07T05:39:31.068Z,102474.41
2022-10-07T05:42:40.409Z,102459.84
2022-10-07T05:45:43.679Z,102462.47
2022-10-07T05:48:49.746Z,102481.84
2022-10-07T05:51:54.338Z,102465.66
2022-10-07T05:54:57.888Z,102471.91
2022-10-07T05:58:01.247Z,102492.31
2022-10-07T06:01:13.719Z,102490.81
2022-10-07T06:04:16.601Z,102445.50
2022-10-07T06:07:28.327Z,102478.06
2022-10-07T06:10:52.746Z,102471.78
2022-10-07T06:13:55.684Z,102471.09
2022-10-07T06:16:58.648Z,102481.13
2022-10-07T06:20:01.260Z,102488.31
2022-10-07T06:23:05.312Z,102490.84
2022-10-07T06:26:10.672Z,102473.69
2022-10-07T06:29:13.360Z,102484.78
2022-10-07T06:32:15.531Z,102467.94
2022-10-07T06:35:19.073Z,102488.78
2022-10-07T06:38:22.818Z,102480.81
2022-10-07T06:41:25.407Z,102472.84
2022-10-07T06:44:39.478Z,102491.19
2022-10-07T06:47:44.550Z,102488.47
2022-10-07T06:50:53.744Z,102479.63
2022-10-07T06:54:00.823Z,102481.66
2022-10-07T06:57:15.435Z,102462.25
2022-10-07T07:00:25.624Z,102485.59
2022-10-07T07:03:30.347Z,102470.41
2022-10-07T07:06:41.639Z,102486.78
2022-10-07T07:09:45.305Z,102490.00
2022-10-07T07:12:47.792Z,102493.41
2022-10-07T07:16:00.245Z,102475.53
2022-10-07T07:19:08.955Z,102473.66
2022-10-07T07:22:12.123Z,102467.53
2022-10-07T07:25:16.429Z,102480.16
2022-10-07T07:28:19.641Z,102468.41
2022-10-07T07:31:21.950Z,102482.19
2022-10-07T07:34:24.500Z,102475.53
2022-10-07T07:37:29.680Z,102468.56
2022-10-07T07:40:32.611Z,102476.38
2022-10-07T07:43:34.703Z,102469.75
2022-10-07T07:46:41.643Z,102461.41
2022-10-07T07:49:44.138Z,102461.56
2022-10-07T07:52:57.112Z,102453.06
2022-10-07T07:55:59.604Z,102463.75
2022-10-07T07:59:04.739Z,102453.75
2022-10-07T08:02:08.327Z,102439.06
2022-10-07T08:05:13.381Z,102463.94
2022-10-07T08:08:17.287Z,102453.38
2022-10-07T08:11:20.793Z,102456.91
2022-10-07T08:14:24.234Z,102455.22
2022-10-07T08:17:29.786Z,102450.47
2022-10-07T08:20:32.906Z,102451.66
2022-10-07T08:23:36.532Z,102448.72
2022-10-07T08:26:38.957Z,102444.13
2022-10-07T08:29:43.820Z,102454.66
2022-10-07T08:32:46.239Z,102447.69
2022-10-07T08:36:07.742Z,102446.47
2022-10-07T08:39:10.871Z,102438.22
2022-10-07T08:42:23.767Z,102435.50
2022-10-07T08:45:31.974Z,102444.28
2022-10-07T08:48:39.028Z,102445.66
2022-10-07T08:52:10.676Z,102433.84
2022-10-07T08:55:28.286Z,102430.38
2022-10-07T08:58:33.257Z,102442.03
2022-10-07T09:01:35.418Z,102438.38
2022-10-07T09:05:11.574Z,102421.84
2022-10-07T09:08:27.993Z,102438.69
2022-10-07T09:11:32.975Z,102435.09
2022-10-07T09:14:39.391Z,102424.09
2022-10-07T09:17:52.680Z,102429.19
2022-10-07T09:20:56.603Z,102430.00
2022-10-07T09:24:15.360Z,102430.31
2022-10-07T09:27:23.425Z,102425.09
2022-10-07T09:30:28.847Z,102416.63
2022-10-07T09:33:31.816Z,102415.50
2022-10-07T09:36:54.639Z,102387.22
2022-10-07T09:40:21.382Z,102406.91
2022-10-07T09:43:26.516Z,102404.94
2022-10-07T09:46:41.409Z,102397.03
2022-10-07T09:49:49.040Z,102394.19
2022-10-07T09:52:56.069Z,102403.34
2022-10-07T09:55:59.104Z,102395.22
2022-10-07T09:59:24.336Z,102390.69
2022-10-07T10:02:27.352Z,102390.84
2022-10-07T10:05:32.830Z,102392.78
2022-10-07T10:08:41.187Z,102389.97
2022-10-07T10:11:43.403Z,102387.78
2022-10-07T10:14:50.584Z,102385.25
2022-10-07T10:17:54.954Z,102354.38
2022-10-07T10:21:14.061Z,102367.91
2022-10-07T10:24:16.463Z,102366.03
2022-10-07T10:27:26.677Z,102365.53
2022-10-07T10:30:30.435Z,102366.38
2022-10-07T10:34:17.145Z,102367.91
2022-10-07T10:37:38.396Z,102346.88
2022-10-07T10:40:48.331Z,102359.13
2022-10-07T10:44:20.797Z,102337.94
2022-10-07T10:47:38.270Z,102357.88
2022-10-07T10:50:42.871Z,102345.28
2022-10-07T10:54:13.149Z,102344.06
2022-10-07T10:57:24.907Z,102328.22
2022-10-07T11:00:35.115Z,102318.19
2022-10-07T11:03:37.495Z,102340.09
2022-10-07T11:06:44.670Z,102323.44
2022-10-07T11:09:56.734Z,102319.19
2022-10-07T11:13:12.068Z,102323.25
2022-10-07T11:16:19.597Z,102321.19
2022-10-07T11:19:36.277Z,102318.47
2022-10-07T11:22:43.721Z,102297.06
2022-10-07T11:25:54.163Z,102316.78
2022-10-07T11:29:00.111Z,102294.16
2022-10-07T11:32:11.075Z,102303.38
2022-10-07T11:35:25.947Z,102312.03
2022-10-07T11:38:41.768Z,102310.34
2022-10-07T11:41:54.220Z,102310.72
2022-10-07T11:45:07.402Z,102304.78
2022-10-07T11:48:17.691Z,102299.19
2022-10-07T11:51:25.393Z,102295.16
2022-10-07T11:54:32.252Z,102279.69
2022-10-07T11:57:37.615Z,102283.75
2022-10-07T12:00:40.573Z,102283.75
2022-10-07T12:03:42.556Z,102289.34
2022-10-07T12:07:23.306Z,102294.94
2022-10-07T12:10:32.624Z,102289.84
2022-10-07T12:13:41.788Z,102280.47
2022-10-07T12:16:55.401Z,102268.22
2022-10-07T12:20:35.766Z,102289.97
2022-10-07T12:23:41.081Z,102271.44
2022-10-07T12:26:56.806Z,102279.91
2022-10-07T12:30:02.924Z,102275.31
2022-10-07T12:33:26.047Z,102280.09
2022-10-07T12:36:28.846Z,102265.50
2022-10-07T12:39:37.021Z,102270.59
2022-10-07T12:42:48.383Z,102274.38
2022-10-07T12:45:51.762Z,102257.88
2022-10-07T12:49:31.131Z,102270.47
2022-10-07T12:52:33.662Z,102263.50
2022-10-07T12:55:39.338Z,102268.47
2022-10-07T12:59:14.241Z,102258.47
2022-10-07T13:02:16.471Z,102261.69
2022-10-07T13:05:51.093Z,102262.72
2022-10-07T13:08:56.039Z,102259.31
2022-10-07T13:12:13.404Z,102246.59
2022-10-07T13:15:34.806Z,102254.41
2022-10-07T13:18:55.498Z,102241.50
2022-10-07T13:22:10.320Z,102254.78
2022-10-07T13:25:14.332Z,102234.53
2022-10-07T13:28:20.261Z,102241.81
2022-10-07T13:31:24.257Z,102238.53
2022-10-07T13:34:28.359Z,102230.94
2022-10-07T13:37:37.978Z,102235.81
2022-10-07T13:40:40.160Z,102231.41
2022-10-07T13:43:44.654Z,102219.13
2022-10-07T13:46:58.611Z,102211.75
2022-10-07T13:50:02.557Z,102220.41
2022-10-07T13:53:04.598Z,102218.09
2022-10-07T13:56:06.692Z,102228.94
2022-10-07T13:59:19.397Z,102221.25
2022-10-07T14:02:21.895Z,102233.44
2022-10-07T14:05:28.838Z,102215.28
2022-10-07T14:08:31.586Z,102210.09
2022-10-07T14:11:35.506Z,102220.22
2022-10-07T14:14:46.015Z,102215.97
2022-10-07T14:17:54.078Z,102222.78
2022-10-07T14:24:20.838Z,102198.25
2022-10-07T14:27:39.669Z,102194.84
2022-10-07T14:31:01.770Z,102210.94
2022-10-07T14:34:35.235Z,102212.19
2022-10-07T14:37:37.340Z,102193.69
2022-10-07T14:40:39.850Z,102212.13
2022-10-07T14:43:45.128Z,102197.78
2022-10-07T14:46:47.553Z,102201.00
2022-10-07T14:49:53.989Z,102181.41
2022-10-07T14:52:56.024Z,102176.22
2022-10-07T14:55:59.810Z,102201.84
2022-10-07T14:59:03.043Z,102188.44
2022-10-07T15:02:05.229Z,102200.00
2022-10-07T15:05:08.044Z,102194.25
2022-10-07T15:08:13.466Z,102188.63
2022-10-07T15:11:20.612Z,102205.34
2022-10-07T15:14:22.595Z,102202.38
2022-10-07T15:17:25.657Z,102177.72
2022-10-07T15:20:30.296Z,102184.41
2022-10-07T15:23:32.378Z,102196.19
2022-10-07T15:26:34.329Z,102182.38
2022-10-07T15:29:37.976Z,102199.88
2022-10-07T15:32:41.189Z,102180.56
2022-10-07T15:35:48.330Z,102182.00
2022-10-07T15:38:51.576Z,102195.94
2022-10-07T15:41:54.230Z,102169.19
2022-10-07T15:44:57.079Z,102179.56
2022-10-07T15:48:00.658Z,102197.63
2022-10-07T15:51:05.031Z,102157.69
2022-10-07T15:54:07.727Z,102191.47
2022-10-07T15:57:10.478Z,102182.34
2022-10-07T16:00:15.759Z,102171.78
2022-10-07T16:03:17.916Z,102186.59
2022-10-07T16:06:25.722Z,102198.97
2022-10-07T16:09:27.993Z,102182.22
2022-10-07T16:12:30.179Z,102190.31
2022-10-07T16:18:54.998Z,102181.38
2022-10-07T16:21:57.167Z,102190.50
2022-10-07T16:24:59.657Z,102192.56
2022-10-07T16:28:20.524Z,102191.72
2022-10-07T16:31:22.700Z,102205.34
2022-10-07T16:34:25.197Z,102192.28
2022-10-07T16:37:28.331Z,102191.06
2022-10-07T16:40:30.428Z,102191.22
2022-10-07T16:43:34.867Z,102181.06
2022-10-07T16:46:39.316Z,102200.00
2022-10-07T16:49:43.841Z,102177.97
2022-10-07T16:52:48.062Z,102197.38
2022-10-07T16:55:50.426Z,102194.75
2022-10-07T16:58:58.142Z,102184.25
2022-10-07T17:02:03.339Z,102184.16
2022-10-07T17:05:06.059Z,102191.47
2022-10-07T17:08:08.389Z,102190.34
2022-10-07T17:11:31.790Z,102190.41
2022-10-07T17:14:34.021Z,102190.31
2022-10-07T17:17:36.284Z,102181.81
2022-10-07T17:20:40.462Z,102198.31
2022-10-07T17:23:42.885Z,102165.09
2022-10-07T17:26:46.200Z,102164.22
2022-10-07T17:29:48.742Z,102185.97
2022-10-07T17:32:54.481Z,102173.44
2022-10-07T17:36:07.722Z,102184.25
2022-10-07T17:39:11.532Z,102168.03
2022-10-07T17:42:16.240Z,102190.09
2022-10-07T17:45:18.360Z,102184.69
2022-10-07T17:48:21.106Z,102179.09
2022-10-07T17:51:28.005Z,102195.22
2022-10-07T17:54:30.289Z,102176.56
2022-10-07T17:57:33.296Z,102181.19
2022-10-07T18:00:35.549Z,102171.84
2022-10-07T18:06:56.440Z,102158.16
2022-10-07T18:09:58.634Z,102175.31
2022-10-07T18:13:19.414Z,102181.59
2022-10-07T18:16:22.467Z,102179.72
2022-10-07T18:19:31.180Z,102144.81
2022-10-07T18:22:35.204Z,102174.34
2022-10-07T18:25:38.775Z,102173.88
2022-10-07T18:28:41.930Z,102164.41
2022-10-07T18:31:46.435Z,102190.22
2022-10-07T18:34:51.916Z,102159.16
2022-10-07T18:37:54.075Z,102190.41
2022-10-07T18:41:00.344Z,102196.91
2022-10-07T18:44:02.539Z,102168.72
2022-10-07T18:47:05.238Z,102195.09
2022-10-07T18:50:07.921Z,102175.56
2022-10-07T18:53:10.281Z,102175.41
2022-10-07T18:56:20.932Z,102189.88
2022-10-07T18:59:23.195Z,102187.19
2022-10-07T19:02:25.449Z,102177.84
2022-10-07T19:05:33.622Z,102206.91
2022-10-07T19:08:37.124Z,102201.34
2022-10-07T19:11:42.730Z,102201.50
2022-10-07T19:14:44.875Z,102189.94
2022-10-07T19:17:48.608Z,102182.84
2022-10-07T19:20:58.478Z,102209.16
2022-10-07T19:24:03.766Z,102170.59
2022-10-07T19:27:08.091Z,102206.63
2022-10-07T19:30:11.313Z,102204.56
2022-10-07T19:33:13.612Z,102197.59
2022-10-07T19:36:19.743Z,102182.00
2022-10-07T19:39:23.125Z,102189.63
2022-10-07T19:42:27.323Z,102206.78
2022-10-07T19:45:29.596Z,102197.44
2022-10-07T19:48:33.719Z,102189.94
2022-10-07T19:51:39.745Z,102205.78
2022-10-07T19:54:45.430Z,102182.50
2022-10-07T19:57:48.282Z,102205.75
2022-10-07T20:00:50.895Z,102200.03
2022-10-07T20:03:59.227Z,102191.34
2022-10-07T20:07:02.212Z,102211.91
2022-10-07T20:10:04.583Z,102200.53
2022-10-07T20:13:07.405Z,102181.13
2022-10-07T20:16:17.424Z,102188.47
2022-10-07T20:19:19.772Z,102177.88
2022-10-07T20:22:22.169Z,102173.97
2022-10-07T20:25:24.627Z,102187.91
2022-10-07T20:28:27.550Z,102199.47
2022-10-07T20:31:33.011Z,102198.44
2022-10-07T20:34:37.980Z,102180.59
2022-10-07T20:37:40.303Z,102199.09
2022-10-07T20:41:01.062Z,102181.59
2022-10-07T20:44:04.301Z,102206.09
2022-10-07T20:47:08.900Z,102186.72
2022-10-07T20:50:11.153Z,102179.22
2022-10-07T20:53:14.049Z,102185.03
2022-10-07T20:56:17.028Z,102192.31
2022-10-07T20:59:19.316Z,102197.44
2022-10-07T21:02:25.003Z,102185.69
2022-10-07T21:05:29.684Z,102199.25
2022-10-07T21:08:31.963Z,102207.78
2022-10-07T21:11:34.939Z,102180.56
2022-10-07T21:14:37.596Z,102200.13
2022-10-07T21:17:40.969Z,102187.19
2022-10-07T21:20:56.718Z,102200.44
2022-10-07T21:24:00.789Z,102181.94
2022-10-07T21:27:05.156Z,102183.44
2022-10-07T21:30:11.626Z,102198.25
2022-10-07T21:33:13.790Z,102197.72
2022-10-07T21:36:18.729Z,102172.22
2022-10-07T21:39:23.872Z,102183.81
2022-10-07T21:42:26.579Z,102178.00
2022-10-07T21:45:28.835Z,102157.75
2022-10-07T21:48:31.839Z,102177.81
2022-10-07T21:51:36.795Z,102161.50
2022-10-07T21:54:40.229Z,102144.16
2022-10-07T21:57:42.960Z,102167.94
2022-10-07T22:00:45.044Z,102152.31
2022-10-07T22:03:48.539Z,102171.00
2022-10-07T22:07:09.261Z,102149.34
2022-10-07T22:10:11.495Z,102129.31
2022-10-07T22:13:14.620Z,102143.06
2022-10-07T22:16:18.508Z,102161.81
2022-10-07T22:19:20.969Z,102147.63
2022-10-07T22:22:24.015Z,102147.63
2022-10-07T22:25:26.102Z,102161.44
2022-10-07T22:28:28.426Z,102152.91
2022-10-07T22:31:32.342Z,102159.19
2022-10-07T22:34:53.411Z,102128.06
2022-10-07T22:37:57.498Z,102127.06
2022-10-07T22:41:08.232Z,102130.81
2022-10-07T22:44:11.557Z,102135.59
2022-10-07T22:47:15.191Z,102125.56
2022-10-07T22:50:17.760Z,102105.84
2022-10-07T22:53:21.687Z,102123.84
2022-10-07T22:56:26.725Z,102122.44
2022-10-07T22:59:28.802Z,102117.53
2022-10-07T23:02:30.963Z,102134.16
2022-10-07T23:05:39.442Z,102118.22
2022-10-07T23:08:43.307Z,102120.78
2022-10-07T23:11:47.104Z,102100.38
2022-10-07T23:14:49.105Z,102113.16
2022-10-07T23:17:51.379Z,102121.81
2022-10-07T23:21:03.973Z,102110.06
2022-10-07T23:24:20.458Z,102116.00
2022-10-07T23:27:23.868Z,102124.50
2022-10-07T23:30:27.970Z,102105.47
2022-10-07T23:33:31.619Z,102117.53
2022-10-07T23:36:40.610Z,102125.16
2022-10-07T23:39:44.730Z,102111.75
2022-10-07T23:42:46.919Z,102113.75
2022-10-07T23:45:51.354Z,102116.28
2022-10-07T23:48:56.023Z,102113.25
2022-10-07T23:51:58.331Z,102113.91
2022-10-07T23:55:00.461Z,102118.16
2022-10-07T23:58:03.097Z,102099.28
